createdAt,value
2017-08-30T00:00:44.898Z,0
2017-08-30T00:01:46.411Z,0
2017-08-30T00:02:47.960Z,0
2017-08-30T00:03:49.436Z,0
2017-08-30T00:04:50.933Z,0
2017-08-30T00:05:52.411Z,0
2017-08-30T00:06:53.922Z,0
2017-08-30T00:07:55.481Z,0
2017-08-30T00:08:56.984Z,0
2017-08-30T00:09:58.489Z,0
2017-08-30T00:11:00.019Z,0
2017-08-30T00:12:01.549Z,0
2017-08-30T00:13:03.029Z,0
2017-08-30T00:14:04.512Z,0
2017-08-30T00:15:06.133Z,0
2017-08-30T00:16:07.706Z,0
2017-08-30T00:17:09.207Z,0
2017-08-30T00:18:10.693Z,0
2017-08-30T00:19:12.224Z,0
2017-08-30T00:20:13.745Z,0
2017-08-30T00:21:15.345Z,0
2017-08-30T00:22:16.839Z,0
2017-08-30T00:23:18.352Z,0
2017-08-30T00:24:19.922Z,0
2017-08-30T00:25:21.421Z,0
2017-08-30T00:26:22.926Z,0
2017-08-30T00:27:24.406Z,0
2017-08-30T00:28:25.921Z,0
2017-08-30T00:29:27.435Z,0
2017-08-30T00:30:29.009Z,0
2017-08-30T00:31:30.513Z,0
2017-08-30T00:32:32.003Z,0
2017-08-30T00:33:33.535Z,0
2017-08-30T00:34:35.088Z,0
2017-08-30T00:35:36.662Z,0
2017-08-30T00:36:38.117Z,0
2017-08-30T00:37:39.649Z,0
2017-08-30T00:38:41.103Z,0
2017-08-30T00:39:42.689Z,0
2017-08-30T00:40:44.193Z,0
2017-08-30T00:41:45.711Z,0
2017-08-30T00:42:47.272Z,0
2017-08-30T00:43:48.810Z,0
2017-08-30T00:44:50.324Z,0
2017-08-30T00:45:51.862Z,0
2017-08-30T00:46:53.417Z,0
2017-08-30T00:47:54.962Z,0
2017-08-30T00:48:56.429Z,0
2017-08-30T00:49:57.937Z,0
2017-08-30T00:50:59.458Z,0
2017-08-30T00:52:01.005Z,0
2017-08-30T00:53:02.544Z,0
2017-08-30T00:54:04.074Z,0
2017-08-30T00:55:05.588Z,0
2017-08-30T00:56:07.087Z,0
2017-08-30T00:57:08.615Z,0
2017-08-30T00:58:10.114Z,0
2017-08-30T00:59:11.649Z,0
2017-08-30T01:00:13.190Z,0
2017-08-30T01:01:14.703Z,0
2017-08-30T01:02:16.165Z,0
2017-08-30T01:03:17.620Z,0
2017-08-30T01:04:19.048Z,0
2017-08-30T01:05:20.495Z,0
2017-08-30T01:06:21.900Z,0
2017-08-30T01:07:23.369Z,0
2017-08-30T01:08:24.779Z,0
2017-08-30T01:09:26.255Z,0
2017-08-30T01:10:27.663Z,0
2017-08-30T01:11:29.095Z,0
2017-08-30T01:12:30.523Z,0
2017-08-30T01:13:31.967Z,0
2017-08-30T01:14:33.392Z,0
2017-08-30T01:15:34.805Z,0
2017-08-30T01:16:36.240Z,0
2017-08-30T01:17:37.710Z,0
2017-08-30T01:18:39.097Z,0
2017-08-30T01:19:40.514Z,0
2017-08-30T01:20:41.945Z,0
2017-08-30T01:21:43.373Z,0
2017-08-30T01:22:44.786Z,0
2017-08-30T01:23:46.203Z,0
2017-08-30T01:24:47.650Z,0
2017-08-30T01:25:49.096Z,0
2017-08-30T01:26:50.506Z,0
2017-08-30T01:27:51.943Z,0
2017-08-30T01:28:53.371Z,0
2017-08-30T01:29:54.767Z,0
2017-08-30T01:30:56.179Z,0
2017-08-30T01:31:57.596Z,0
2017-08-30T01:32:59.032Z,0
2017-08-30T01:34:00.519Z,0
2017-08-30T01:35:01.973Z,0
2017-08-30T01:36:03.407Z,0
2017-08-30T01:37:04.815Z,0
2017-08-30T01:38:06.248Z,0
2017-08-30T01:39:07.662Z,0
2017-08-30T01:40:09.123Z,0
2017-08-30T01:41:10.576Z,0
2017-08-30T01:42:11.992Z,0
2017-08-30T01:43:13.422Z,0
2017-08-30T01:44:14.817Z,0
2017-08-30T01:45:16.274Z,0
2017-08-30T01:46:17.682Z,0
2017-08-30T01:47:19.156Z,0
2017-08-30T01:48:20.567Z,0
2017-08-30T01:49:21.973Z,0
2017-08-30T01:50:23.408Z,0
2017-08-30T01:51:24.849Z,0
2017-08-30T01:52:26.288Z,0
2017-08-30T01:53:27.683Z,0
2017-08-30T01:54:29.121Z,0
2017-08-30T01:55:30.528Z,0
2017-08-30T01:56:31.951Z,0
2017-08-30T01:57:33.374Z,0
2017-08-30T01:58:34.785Z,0
2017-08-30T01:59:36.204Z,0
2017-08-30T02:00:37.618Z,0
2017-08-30T02:01:39.028Z,0
2017-08-30T02:02:40.435Z,0
2017-08-30T02:03:41.859Z,0
2017-08-30T02:04:43.297Z,0
2017-08-30T02:05:44.706Z,0
2017-08-30T02:06:46.125Z,0
2017-08-30T02:07:47.571Z,0
2017-08-30T02:08:49.014Z,0
2017-08-30T02:09:50.443Z,0
2017-08-30T02:10:51.872Z,0
2017-08-30T02:11:53.325Z,0
2017-08-30T02:12:54.730Z,0
2017-08-30T02:13:56.144Z,0
2017-08-30T02:14:57.542Z,0
2017-08-30T02:15:58.956Z,0
2017-08-30T02:17:00.365Z,0
2017-08-30T02:18:01.767Z,0
2017-08-30T02:19:03.185Z,0
2017-08-30T02:20:04.595Z,0
2017-08-30T02:21:05.996Z,0
2017-08-30T02:22:07.409Z,0
2017-08-30T02:23:08.822Z,0
2017-08-30T02:24:10.226Z,0
2017-08-30T02:25:11.643Z,0
2017-08-30T02:26:13.042Z,0
2017-08-30T02:27:14.460Z,0
2017-08-30T02:28:15.870Z,0
2017-08-30T02:29:17.276Z,0
2017-08-30T02:30:18.711Z,0
2017-08-30T02:31:20.119Z,0
2017-08-30T02:32:21.540Z,0
2017-08-30T02:33:22.954Z,0
2017-08-30T02:34:24.365Z,0
2017-08-30T02:35:25.773Z,0
2017-08-30T02:36:27.178Z,0
2017-08-30T02:37:28.584Z,0
2017-08-30T02:38:29.986Z,0
2017-08-30T02:39:31.406Z,0
2017-08-30T02:40:32.872Z,0
2017-08-30T02:41:34.273Z,0
2017-08-30T02:42:35.706Z,0
2017-08-30T02:43:37.112Z,0
2017-08-30T02:44:38.512Z,0
2017-08-30T02:45:39.965Z,0
2017-08-30T02:46:41.372Z,0
2017-08-30T02:47:42.791Z,0
2017-08-30T02:48:44.191Z,0
2017-08-30T02:49:45.595Z,0
2017-08-30T02:50:47.016Z,0
2017-08-30T02:51:48.443Z,0
2017-08-30T02:52:49.830Z,0
2017-08-30T02:53:51.242Z,0
2017-08-30T02:54:52.669Z,0
2017-08-30T02:55:54.068Z,0
2017-08-30T02:56:55.490Z,0
2017-08-30T02:57:56.890Z,0
2017-08-30T02:58:58.293Z,0
2017-08-30T02:59:59.698Z,0
2017-08-30T03:01:01.135Z,0
2017-08-30T03:02:02.549Z,0
2017-08-30T03:03:03.949Z,0
2017-08-30T03:04:05.360Z,0
2017-08-30T03:05:06.786Z,0
2017-08-30T03:06:08.237Z,0
2017-08-30T03:07:09.666Z,0
2017-08-30T03:08:11.095Z,0
2017-08-30T03:09:12.536Z,0
2017-08-30T03:10:13.937Z,0
2017-08-30T03:11:15.405Z,0
2017-08-30T03:12:16.836Z,0
2017-08-30T03:13:18.257Z,0
2017-08-30T03:14:19.709Z,0
2017-08-30T03:15:21.166Z,0
2017-08-30T03:16:22.605Z,0
2017-08-30T03:17:24.061Z,0
2017-08-30T03:18:25.479Z,0
2017-08-30T03:19:26.893Z,0
2017-08-30T03:20:28.344Z,0
2017-08-30T03:21:29.759Z,0
2017-08-30T03:22:31.198Z,0
2017-08-30T03:23:32.648Z,0
2017-08-30T03:24:34.093Z,0
2017-08-30T03:25:35.536Z,0
2017-08-30T03:26:37.030Z,0
2017-08-30T03:27:38.452Z,0
2017-08-30T03:28:39.896Z,0
2017-08-30T03:29:41.325Z,0
2017-08-30T03:30:42.781Z,0
2017-08-30T03:31:44.237Z,0
2017-08-30T03:32:45.660Z,0
2017-08-30T03:33:47.072Z,0
2017-08-30T03:34:48.491Z,0
2017-08-30T03:35:49.936Z,0
2017-08-30T03:36:51.425Z,0
2017-08-30T03:37:52.883Z,0
2017-08-30T03:38:54.281Z,0
2017-08-30T03:39:55.710Z,0
2017-08-30T03:40:57.120Z,0
2017-08-30T03:41:58.575Z,0
2017-08-30T03:42:59.981Z,0
2017-08-30T03:44:01.417Z,0
2017-08-30T03:45:02.815Z,0
2017-08-30T03:46:04.227Z,0
2017-08-30T03:47:05.648Z,0
2017-08-30T03:48:07.074Z,0
2017-08-30T03:49:08.465Z,0
2017-08-30T03:50:09.880Z,0
2017-08-30T03:51:11.288Z,0
2017-08-30T03:52:12.737Z,0
2017-08-30T03:53:14.150Z,0
2017-08-30T03:54:15.575Z,4
2017-08-30T03:55:16.975Z,0
2017-08-30T03:56:18.463Z,0
2017-08-30T03:57:19.859Z,4
2017-08-30T03:58:21.279Z,0
2017-08-30T03:59:22.720Z,4
2017-08-30T04:00:24.127Z,4
2017-08-30T04:01:25.554Z,8
2017-08-30T04:02:26.955Z,8
2017-08-30T04:03:28.392Z,8
2017-08-30T04:04:29.795Z,8
2017-08-30T04:05:31.207Z,12
2017-08-30T04:06:32.606Z,16
2017-08-30T04:07:34.058Z,16
2017-08-30T04:08:35.476Z,20
2017-08-30T04:09:36.881Z,24
2017-08-30T04:10:38.329Z,28
2017-08-30T04:11:39.728Z,32
2017-08-30T04:12:41.161Z,40
2017-08-30T04:13:42.614Z,44
2017-08-30T04:14:44.034Z,48
2017-08-30T04:15:45.473Z,56
2017-08-30T04:16:46.904Z,64
2017-08-30T04:17:48.352Z,72
2017-08-30T04:18:49.767Z,80
2017-08-30T04:19:51.189Z,92
2017-08-30T04:20:52.613Z,104
2017-08-30T04:21:54.033Z,116
2017-08-30T04:22:55.494Z,132
2017-08-30T04:23:56.923Z,144
2017-08-30T04:24:58.350Z,160
2017-08-30T04:25:59.780Z,172
2017-08-30T04:27:01.281Z,188
2017-08-30T04:28:02.705Z,204
2017-08-30T04:29:04.193Z,220
2017-08-30T04:30:05.715Z,236
2017-08-30T04:31:07.139Z,256
2017-08-30T04:32:08.590Z,272
2017-08-30T04:33:10.029Z,292
2017-08-30T04:34:11.462Z,312
2017-08-30T04:35:12.897Z,332
2017-08-30T04:36:14.415Z,356
2017-08-30T04:37:15.893Z,376
2017-08-30T04:38:17.333Z,400
2017-08-30T04:39:18.760Z,424
2017-08-30T04:40:20.212Z,444
2017-08-30T04:41:21.624Z,468
2017-08-30T04:42:23.034Z,492
2017-08-30T04:43:24.453Z,516
2017-08-30T04:44:25.864Z,540
2017-08-30T04:45:27.286Z,564
2017-08-30T04:46:28.709Z,588
2017-08-30T04:47:30.193Z,612
2017-08-30T04:48:31.623Z,636
2017-08-30T04:49:33.030Z,664
2017-08-30T04:50:34.490Z,684
2017-08-30T04:51:35.923Z,708
2017-08-30T04:52:37.366Z,732
2017-08-30T04:53:38.797Z,756
2017-08-30T04:54:40.575Z,780
2017-08-30T04:55:41.992Z,808
2017-08-30T04:56:43.423Z,832
2017-08-30T04:57:44.841Z,856
2017-08-30T04:58:46.237Z,884
2017-08-30T04:59:47.668Z,904
2017-08-30T05:00:49.081Z,928
2017-08-30T05:01:50.489Z,952
2017-08-30T05:02:51.920Z,976
2017-08-30T05:03:53.363Z,1000
2017-08-30T05:04:54.774Z,1024
2017-08-30T05:05:56.202Z,1048
2017-08-30T05:06:57.643Z,1068
2017-08-30T05:07:59.049Z,1096
2017-08-30T05:09:00.481Z,1116
2017-08-30T05:10:01.903Z,1136
2017-08-30T05:11:03.410Z,1160
2017-08-30T05:12:05.011Z,1184
2017-08-30T05:13:06.452Z,1204
2017-08-30T05:14:07.866Z,1224
2017-08-30T05:15:09.401Z,1248
2017-08-30T05:16:10.892Z,1272
2017-08-30T05:17:12.313Z,1296
2017-08-30T05:18:13.740Z,1312
2017-08-30T05:19:15.171Z,1336
2017-08-30T05:20:16.572Z,1360
2017-08-30T05:21:18.001Z,1380
2017-08-30T05:22:19.433Z,1400
2017-08-30T05:23:20.840Z,1424
2017-08-30T05:24:22.270Z,1448
2017-08-30T05:25:23.693Z,1472
2017-08-30T05:26:25.113Z,1500
2017-08-30T05:27:26.538Z,1524
2017-08-30T05:28:27.945Z,1548
2017-08-30T05:29:29.377Z,1568
2017-08-30T05:30:30.789Z,1592
2017-08-30T05:31:32.195Z,1616
2017-08-30T05:32:33.611Z,1640
2017-08-30T05:33:35.029Z,1660
2017-08-30T05:34:36.438Z,1680
2017-08-30T05:35:37.869Z,1696
2017-08-30T05:36:39.324Z,1724
2017-08-30T05:37:40.795Z,1752
2017-08-30T05:38:42.209Z,1776
2017-08-30T05:39:43.627Z,1800
2017-08-30T05:40:45.049Z,1828
2017-08-30T05:41:46.462Z,1852
2017-08-30T05:42:47.905Z,1884
2017-08-30T05:43:49.317Z,1916
2017-08-30T05:44:50.748Z,1948
2017-08-30T05:45:52.163Z,1988
2017-08-30T05:46:53.624Z,2020
2017-08-30T05:47:55.004Z,2052
2017-08-30T05:48:56.449Z,2076
2017-08-30T05:49:57.871Z,2132
2017-08-30T05:50:59.337Z,2180
2017-08-30T05:52:00.798Z,2232
2017-08-30T05:53:02.390Z,2288
2017-08-30T05:54:03.899Z,2356
2017-08-30T05:55:05.504Z,2452
2017-08-30T05:56:07.081Z,2616
2017-08-30T05:57:08.701Z,2868
2017-08-30T05:58:10.289Z,3124
2017-08-30T05:59:12.221Z,3332
2017-08-30T06:00:13.798Z,3496
2017-08-30T06:01:15.381Z,3644
2017-08-30T06:02:16.892Z,3860
2017-08-30T06:03:18.567Z,4068
2017-08-30T06:04:20.131Z,4172
2017-08-30T06:05:21.651Z,4228
2017-08-30T06:06:23.192Z,4280
2017-08-30T06:07:24.778Z,4300
2017-08-30T06:08:26.322Z,4336
2017-08-30T06:09:27.909Z,4368
2017-08-30T06:10:29.462Z,4392
2017-08-30T06:11:30.999Z,4448
2017-08-30T06:12:32.507Z,4484
2017-08-30T06:13:34.018Z,4532
2017-08-30T06:14:35.553Z,4572
2017-08-30T06:15:37.022Z,4644
2017-08-30T06:16:38.607Z,4704
2017-08-30T06:17:40.099Z,4748
2017-08-30T06:18:41.634Z,4764
2017-08-30T06:19:43.090Z,4768
2017-08-30T06:20:44.536Z,4792
2017-08-30T06:21:46.010Z,4800
2017-08-30T06:22:47.461Z,4824
2017-08-30T06:23:48.924Z,4808
2017-08-30T06:24:50.369Z,4784
2017-08-30T06:25:51.770Z,4768
2017-08-30T06:26:53.229Z,4732
2017-08-30T06:27:54.684Z,4800
2017-08-30T06:28:56.137Z,4928
2017-08-30T06:29:57.637Z,5036
2017-08-30T06:30:59.122Z,5092
2017-08-30T06:32:00.526Z,5428
2017-08-30T06:33:02.015Z,6120
2017-08-30T06:34:03.462Z,6112
2017-08-30T06:35:04.929Z,5516
2017-08-30T06:36:06.362Z,5328
2017-08-30T06:37:07.820Z,5300
2017-08-30T06:38:09.303Z,5268
2017-08-30T06:39:10.740Z,5244
2017-08-30T06:40:12.169Z,5224
2017-08-30T06:41:13.621Z,5236
2017-08-30T06:42:15.072Z,5164
2017-08-30T06:43:16.591Z,5172
2017-08-30T06:44:18.003Z,5188
2017-08-30T06:45:19.483Z,5204
2017-08-30T06:46:20.935Z,5488
2017-08-30T06:47:22.408Z,5532
2017-08-30T06:48:23.847Z,5304
2017-08-30T06:49:25.275Z,5272
2017-08-30T06:50:26.754Z,5316
2017-08-30T06:51:28.227Z,5456
2017-08-30T06:52:29.682Z,5540
2017-08-30T06:53:31.174Z,5516
2017-08-30T06:54:32.616Z,5440
2017-08-30T06:55:34.042Z,5316
2017-08-30T06:56:35.515Z,5192
2017-08-30T06:57:36.963Z,5052
2017-08-30T06:58:38.385Z,4944
2017-08-30T06:59:39.881Z,4924
2017-08-30T07:00:41.387Z,4940
2017-08-30T07:01:42.878Z,4988
2017-08-30T07:02:44.393Z,5016
2017-08-30T07:03:45.925Z,5060
2017-08-30T07:04:47.430Z,5096
2017-08-30T07:05:48.966Z,5140
2017-08-30T07:06:50.517Z,5192
2017-08-30T07:07:52.135Z,5224
2017-08-30T07:08:53.678Z,5280
2017-08-30T07:09:55.255Z,5312
2017-08-30T07:10:56.760Z,5388
2017-08-30T07:11:58.311Z,5428
2017-08-30T07:12:59.786Z,5480
2017-08-30T07:14:01.306Z,5540
2017-08-30T07:15:02.803Z,5596
2017-08-30T07:16:04.322Z,5664
2017-08-30T07:17:05.923Z,5728
2017-08-30T07:18:07.465Z,5780
2017-08-30T07:19:09.006Z,5820
2017-08-30T07:20:10.503Z,5872
2017-08-30T07:21:12.052Z,5920
2017-08-30T07:22:13.559Z,5960
2017-08-30T07:23:15.099Z,6004
2017-08-30T07:24:16.659Z,6036
2017-08-30T07:25:18.227Z,6088
2017-08-30T07:26:19.694Z,6152
2017-08-30T07:27:21.274Z,6192
2017-08-30T07:28:22.855Z,6236
2017-08-30T07:29:24.351Z,6280
2017-08-30T07:30:25.890Z,6332
2017-08-30T07:31:27.405Z,6368
2017-08-30T07:32:28.916Z,6408
2017-08-30T07:33:30.440Z,6144
2017-08-30T07:34:32.000Z,6324
2017-08-30T07:35:33.529Z,6396
2017-08-30T07:36:35.132Z,6556
2017-08-30T07:37:37.028Z,6196
2017-08-30T07:38:38.561Z,6524
2017-08-30T07:39:40.053Z,6652
2017-08-30T07:40:41.565Z,6672
2017-08-30T07:41:43.105Z,6728
2017-08-30T07:42:44.616Z,6704
2017-08-30T07:43:46.445Z,6816
2017-08-30T07:44:50.792Z,6952
2017-08-30T07:45:52.278Z,6928
2017-08-30T07:46:54.865Z,6956
2017-08-30T07:47:56.366Z,7076
2017-08-30T07:48:57.883Z,7044
2017-08-30T07:49:59.413Z,7116
2017-08-30T07:51:00.936Z,7172
2017-08-30T07:52:02.508Z,7188
2017-08-30T07:53:04.031Z,7184
2017-08-30T07:54:05.508Z,7216
2017-08-30T07:55:07.016Z,6972
2017-08-30T07:56:08.564Z,7260
2017-08-30T07:57:10.073Z,7140
2017-08-30T07:58:11.605Z,7336
2017-08-30T07:59:13.128Z,6912
2017-08-30T08:00:14.785Z,7456
2017-08-30T08:01:16.497Z,7392
2017-08-30T08:02:17.998Z,7524
2017-08-30T08:03:19.537Z,7604
2017-08-30T08:04:21.058Z,7612
2017-08-30T08:05:22.537Z,7672
2017-08-30T08:06:24.045Z,7696
2017-08-30T08:07:25.594Z,7788
2017-08-30T08:08:27.164Z,7856
2017-08-30T08:09:28.631Z,7900
2017-08-30T08:10:30.151Z,8000
2017-08-30T08:11:31.626Z,8100
2017-08-30T08:12:33.183Z,8124
2017-08-30T08:13:34.755Z,8168
2017-08-30T08:14:36.396Z,8200
2017-08-30T08:15:37.904Z,8248
2017-08-30T08:16:39.447Z,8260
2017-08-30T08:17:40.888Z,8252
2017-08-30T08:18:42.425Z,8300
2017-08-30T08:19:44.001Z,8352
2017-08-30T08:20:46.299Z,8408
2017-08-30T08:21:47.851Z,8468
2017-08-30T08:22:49.379Z,8424
2017-08-30T08:23:50.862Z,8496
2017-08-30T08:24:52.432Z,8276
2017-08-30T08:25:53.956Z,8516
2017-08-30T08:26:55.465Z,8548
2017-08-30T08:27:57.123Z,8800
2017-08-30T08:28:58.653Z,8692
2017-08-30T08:30:00.387Z,8896
2017-08-30T08:31:01.938Z,8752
2017-08-30T08:32:03.441Z,8328
2017-08-30T08:33:05.030Z,8952
2017-08-30T08:34:06.636Z,9096
2017-08-30T08:35:08.160Z,9140
2017-08-30T08:36:09.708Z,9224
2017-08-30T08:37:11.225Z,9320
2017-08-30T08:38:12.789Z,9292
2017-08-30T08:39:14.454Z,9420
2017-08-30T08:40:16.155Z,9488
2017-08-30T08:41:17.914Z,9500
2017-08-30T08:42:19.421Z,9512
2017-08-30T08:43:20.928Z,9452
2017-08-30T08:44:22.477Z,9660
2017-08-30T08:45:24.015Z,9572
2017-08-30T08:46:25.520Z,9716
2017-08-30T08:47:27.065Z,9744
2017-08-30T08:48:28.627Z,9980
2017-08-30T08:49:30.127Z,9724
2017-08-30T08:50:31.672Z,9828
2017-08-30T08:51:33.152Z,9976
2017-08-30T08:52:34.648Z,9936
2017-08-30T08:53:36.154Z,10076
2017-08-30T08:54:37.635Z,9536
2017-08-30T08:55:39.163Z,9900
2017-08-30T08:56:40.668Z,10240
2017-08-30T08:57:42.146Z,9940
2017-08-30T08:58:43.727Z,10204
2017-08-30T08:59:45.276Z,10140
2017-08-30T09:00:46.855Z,10300
2017-08-30T09:01:48.424Z,10324
2017-08-30T09:02:49.968Z,10088
2017-08-30T09:03:51.495Z,10152
2017-08-30T09:04:53.059Z,9760
2017-08-30T09:05:54.695Z,9912
2017-08-30T09:06:56.189Z,10320
2017-08-30T09:07:57.718Z,10312
2017-08-30T09:08:59.221Z,10112
2017-08-30T09:10:00.790Z,10380
2017-08-30T09:11:02.292Z,10468
2017-08-30T09:12:03.801Z,10668
2017-08-30T09:13:05.396Z,10724
2017-08-30T09:14:06.959Z,10764
2017-08-30T09:15:08.538Z,10580
2017-08-30T09:16:10.078Z,10468
2017-08-30T09:17:11.616Z,11116
2017-08-30T09:18:13.135Z,10932
2017-08-30T09:19:14.729Z,11008
2017-08-30T09:20:16.313Z,11024
2017-08-30T09:21:17.854Z,11084
2017-08-30T09:22:19.447Z,10968
2017-08-30T09:23:21.325Z,11128
2017-08-30T09:24:22.911Z,10916
2017-08-30T09:25:24.567Z,11200
2017-08-30T09:26:26.220Z,11408
2017-08-30T09:27:27.940Z,11168
2017-08-30T09:28:29.985Z,11396
2017-08-30T09:29:31.591Z,11504
2017-08-30T09:30:33.306Z,11564
2017-08-30T09:31:34.928Z,11616
2017-08-30T09:32:36.665Z,11964
2017-08-30T09:33:38.233Z,11896
2017-08-30T09:34:39.760Z,11928
2017-08-30T09:35:41.274Z,11992
2017-08-30T09:36:42.839Z,12136
2017-08-30T09:37:44.412Z,12260
2017-08-30T09:38:45.914Z,12356
2017-08-30T09:39:47.425Z,12184
2017-08-30T09:40:48.961Z,12136
2017-08-30T09:41:50.527Z,12472
2017-08-30T09:42:52.096Z,12800
2017-08-30T09:43:53.761Z,12880
2017-08-30T09:44:55.310Z,12828
2017-08-30T09:45:56.847Z,12908
2017-08-30T09:46:58.365Z,12856
2017-08-30T09:47:59.886Z,12748
2017-08-30T09:49:01.410Z,13088
2017-08-30T09:50:02.946Z,13240
2017-08-30T09:51:04.455Z,13220
2017-08-30T09:52:05.995Z,13340
2017-08-30T09:53:07.603Z,13360
2017-08-30T09:54:09.117Z,13288
2017-08-30T09:55:10.634Z,13364
2017-08-30T09:56:12.200Z,13240
2017-08-30T09:57:13.790Z,13560
2017-08-30T09:58:15.230Z,13484
2017-08-30T09:59:16.738Z,13984
2017-08-30T10:00:18.244Z,14304
2017-08-30T10:01:20.600Z,14388
2017-08-30T10:02:22.138Z,14656
2017-08-30T10:03:23.706Z,14816
2017-08-30T10:04:25.343Z,14656
2017-08-30T10:05:26.903Z,14552
2017-08-30T10:06:28.568Z,14784
2017-08-30T10:07:30.165Z,15264
2017-08-30T10:08:31.846Z,15296
2017-08-30T10:09:33.451Z,15264
2017-08-30T10:10:35.011Z,15072
2017-08-30T10:11:36.594Z,14816
2017-08-30T10:12:38.181Z,15040
2017-08-30T10:13:39.673Z,14656
2017-08-30T10:14:41.183Z,14700
2017-08-30T10:15:42.695Z,14548
2017-08-30T10:16:44.286Z,15328
2017-08-30T10:17:45.880Z,14780
2017-08-30T10:18:47.426Z,15456
2017-08-30T10:19:48.937Z,15712
2017-08-30T10:20:50.489Z,15328
2017-08-30T10:21:51.994Z,15584
2017-08-30T10:22:53.526Z,15232
2017-08-30T10:23:55.082Z,14328
2017-08-30T10:24:56.590Z,15424
2017-08-30T10:25:58.147Z,15424
2017-08-30T10:26:59.674Z,14600
2017-08-30T10:28:01.169Z,15680
2017-08-30T10:29:02.824Z,16384
2017-08-30T10:30:04.364Z,16672
2017-08-30T10:31:06.029Z,16736
2017-08-30T10:32:07.618Z,16832
2017-08-30T10:33:09.135Z,16928
2017-08-30T10:34:10.753Z,17024
2017-08-30T10:35:12.383Z,17088
2017-08-30T10:36:13.928Z,16544
2017-08-30T10:37:15.445Z,17696
2017-08-30T10:38:16.944Z,17856
2017-08-30T10:39:18.491Z,17952
2017-08-30T10:40:20.076Z,17920
2017-08-30T10:41:21.575Z,17952
2017-08-30T10:42:23.060Z,17568
2017-08-30T10:43:24.584Z,17312
2017-08-30T10:44:26.075Z,16352
2017-08-30T10:45:27.636Z,15840
2017-08-30T10:46:29.119Z,15872
2017-08-30T10:47:30.618Z,16352
2017-08-30T10:48:32.367Z,16128
2017-08-30T10:49:33.937Z,16192
2017-08-30T10:50:35.500Z,17024
2017-08-30T10:51:37.211Z,17216
2017-08-30T10:52:38.787Z,18016
2017-08-30T10:53:40.410Z,18624
2017-08-30T10:54:41.973Z,18304
2017-08-30T10:55:43.577Z,19552
2017-08-30T10:56:45.082Z,19904
2017-08-30T10:57:46.650Z,20672
2017-08-30T10:58:48.360Z,20224
2017-08-30T10:59:49.899Z,20832
2017-08-30T11:00:51.481Z,20896
2017-08-30T11:01:52.977Z,21184
2017-08-30T11:02:54.482Z,21152
2017-08-30T11:03:56.048Z,21600
2017-08-30T11:04:57.602Z,23200
2017-08-30T11:05:59.149Z,23744
2017-08-30T11:07:00.678Z,22336
2017-08-30T11:08:02.254Z,24384
2017-08-30T11:09:03.801Z,21440
2017-08-30T11:10:05.356Z,21504
2017-08-30T11:11:06.947Z,20160
2017-08-30T11:12:08.534Z,20160
2017-08-30T11:13:10.121Z,21984
2017-08-30T11:14:11.619Z,24160
2017-08-30T11:15:13.177Z,29440
2017-08-30T11:16:14.755Z,29728
2017-08-30T11:17:16.356Z,26240
2017-08-30T11:18:17.883Z,24928
2017-08-30T11:19:19.416Z,25280
2017-08-30T11:20:20.987Z,21184
2017-08-30T11:21:22.475Z,19040
2017-08-30T11:22:24.019Z,15520
2017-08-30T11:23:25.634Z,15616
2017-08-30T11:24:27.337Z,16128
2017-08-30T11:25:29.428Z,16096
2017-08-30T11:26:31.155Z,18176
2017-08-30T11:27:32.746Z,18304
2017-08-30T11:28:34.320Z,19072
2017-08-30T11:29:35.946Z,16608
2017-08-30T11:30:37.579Z,17440
2017-08-30T11:31:39.396Z,20128
2017-08-30T11:32:40.904Z,34176
2017-08-30T11:33:42.811Z,39136
2017-08-30T11:34:44.373Z,36448
2017-08-30T11:35:45.939Z,33760
2017-08-30T11:36:47.511Z,28544
2017-08-30T11:37:49.067Z,30016
2017-08-30T11:38:50.630Z,33088
2017-08-30T11:39:52.198Z,34848
2017-08-30T11:40:53.734Z,43040
2017-08-30T11:41:55.316Z,41728
2017-08-30T11:42:56.874Z,35616
2017-08-30T11:43:58.366Z,37184
2017-08-30T11:45:00.007Z,38784
2017-08-30T11:46:01.539Z,43872
2017-08-30T11:47:03.050Z,44896
2017-08-30T11:48:04.582Z,44800
2017-08-30T11:49:06.167Z,44128
2017-08-30T11:50:07.947Z,41856
2017-08-30T11:51:09.382Z,33984
2017-08-30T11:52:10.971Z,25504
2017-08-30T11:53:12.530Z,18336
2017-08-30T11:54:14.211Z,16224
2017-08-30T11:55:15.754Z,15176
2017-08-30T11:56:17.297Z,15776
2017-08-30T11:57:18.863Z,18336
2017-08-30T11:58:20.448Z,20736
2017-08-30T11:59:22.001Z,24032
2017-08-30T12:00:23.604Z,23424
2017-08-30T12:01:25.673Z,25920
2017-08-30T12:02:28.655Z,24992
2017-08-30T12:03:31.547Z,24288
2017-08-30T12:04:38.210Z,27264
2017-08-30T12:05:40.859Z,38816
2017-08-30T12:06:43.370Z,41504
2017-08-30T12:07:45.856Z,45472
2017-08-30T12:08:48.897Z,50528
2017-08-30T12:09:51.095Z,51008
2017-08-30T12:10:54.109Z,51360
2017-08-30T12:11:56.162Z,52320
2017-08-30T12:13:00.539Z,51456
2017-08-30T12:14:02.905Z,51520
2017-08-30T12:15:05.079Z,51520
2017-08-30T12:16:07.441Z,52864
2017-08-30T12:17:09.717Z,53376
2017-08-30T12:18:12.153Z,53024
2017-08-30T12:19:14.606Z,52992
2017-08-30T12:20:16.843Z,53056
2017-08-30T12:21:18.626Z,53696
2017-08-30T12:22:20.771Z,53600
2017-08-30T12:23:22.703Z,53504
2017-08-30T12:24:24.699Z,50464
2017-08-30T12:25:26.432Z,50944
2017-08-30T12:26:28.096Z,53248
2017-08-30T12:27:29.792Z,53856
2017-08-30T12:28:31.545Z,54528
2017-08-30T12:29:33.493Z,54048
2017-08-30T12:30:35.345Z,53472
2017-08-30T12:31:36.997Z,54752
2017-08-30T12:32:38.604Z,55840
2017-08-30T12:33:40.207Z,55328
2017-08-30T12:34:42.108Z,55424
2017-08-30T12:35:43.828Z,54496
2017-08-30T12:36:45.532Z,54880
2017-08-30T12:37:47.316Z,54400
2017-08-30T12:38:48.869Z,53952
2017-08-30T12:39:50.509Z,54080
2017-08-30T12:40:52.048Z,51520
2017-08-30T12:41:53.699Z,47872
2017-08-30T12:42:55.440Z,47136
2017-08-30T12:43:57.311Z,41248
2017-08-30T12:44:59.519Z,43584
2017-08-30T12:46:01.312Z,38528
2017-08-30T12:47:03.064Z,37952
2017-08-30T12:48:05.005Z,35232
2017-08-30T12:49:07.044Z,36352
2017-08-30T12:50:08.886Z,36256
2017-08-30T12:51:10.531Z,29696
2017-08-30T12:52:12.152Z,22528
2017-08-30T12:53:13.873Z,26368
2017-08-30T12:54:16.030Z,26624
2017-08-30T12:55:17.573Z,24832
2017-08-30T12:56:19.213Z,25472
2017-08-30T12:57:20.806Z,24960
2017-08-30T12:58:22.699Z,25376
2017-08-30T12:59:24.253Z,20992
2017-08-30T13:00:26.244Z,19968
2017-08-30T13:01:27.815Z,18432
2017-08-30T13:02:29.433Z,17504
2017-08-30T13:03:30.995Z,16736
2017-08-30T13:04:32.527Z,17312
2017-08-30T13:05:34.107Z,19456
2017-08-30T13:06:35.639Z,22144
2017-08-30T13:07:37.323Z,27296
2017-08-30T13:08:40.380Z,26752
2017-08-30T13:09:42.182Z,34208
2017-08-30T13:10:44.266Z,29088
2017-08-30T13:11:45.872Z,25440
2017-08-30T13:12:47.415Z,45376
2017-08-30T13:13:48.974Z,30880
2017-08-30T13:14:50.551Z,20032
2017-08-30T13:15:52.064Z,18976
2017-08-30T13:16:53.790Z,16768
2017-08-30T13:17:56.775Z,15368
2017-08-30T13:19:01.020Z,15524
2017-08-30T13:20:02.570Z,15496
2017-08-30T13:21:04.141Z,17280
2017-08-30T13:22:05.673Z,18432
2017-08-30T13:23:07.246Z,21024
2017-08-30T13:24:08.751Z,35616
2017-08-30T13:25:10.532Z,50688
2017-08-30T13:26:11.986Z,55520
2017-08-30T13:27:13.556Z,54176
2017-08-30T13:28:15.138Z,56160
2017-08-30T13:29:17.597Z,60224
2017-08-30T13:30:19.114Z,40800
2017-08-30T13:31:20.626Z,51808
2017-08-30T13:32:22.149Z,51936
2017-08-30T13:33:23.677Z,50080
2017-08-30T13:34:25.222Z,46240
2017-08-30T13:35:26.756Z,34560
2017-08-30T13:36:28.397Z,29952
2017-08-30T13:37:29.957Z,22368
2017-08-30T13:38:31.452Z,32608
2017-08-30T13:39:33.253Z,43360
2017-08-30T13:40:34.755Z,48128
2017-08-30T13:41:36.253Z,44992
2017-08-30T13:42:37.867Z,43232
2017-08-30T13:43:39.427Z,21056
2017-08-30T13:44:41.284Z,19456
2017-08-30T13:45:42.887Z,24096
2017-08-30T13:46:44.402Z,36832
2017-08-30T13:47:45.899Z,49568
2017-08-30T13:48:47.386Z,54592
2017-08-30T13:49:48.880Z,33664
2017-08-30T13:50:50.468Z,27744
2017-08-30T13:51:51.982Z,27936
2017-08-30T13:52:53.433Z,44928
2017-08-30T13:53:54.949Z,48640
2017-08-30T13:54:56.522Z,49984
2017-08-30T13:55:58.039Z,53664
2017-08-30T13:56:59.559Z,52544